createdAt,value
2018-05-31T00:01:04.890Z,2.5
2018-05-31T00:04:01.463Z,2.3
2018-05-31T00:07:01.264Z,2.3
2018-05-31T00:10:04.396Z,2.3
2018-05-31T00:13:01.633Z,2.5
2018-05-31T00:16:01.408Z,2.4
2018-05-31T00:19:03.514Z,2.7
2018-05-31T00:22:01.416Z,2.5
2018-05-31T00:25:01.564Z,2.4
2018-05-31T00:28:02.703Z,2.4
2018-05-31T00:31:01.352Z,2.3
2018-05-31T00:34:01.312Z,2.4
2018-05-31T00:37:01.653Z,2.5
2018-05-31T00:40:01.440Z,2.3
2018-05-31T00:43:01.450Z,2.3
2018-05-31T00:46:01.359Z,2.4
2018-05-31T00:49:01.491Z,2.2
2018-05-31T00:52:01.514Z,2.5
2018-05-31T00:55:01.327Z,2.6
2018-05-31T00:58:01.676Z,2.3
2018-05-31T01:01:01.613Z,2.3
2018-05-31T01:04:11.439Z,2.4
2018-05-31T01:07:01.502Z,2.7
2018-05-31T01:10:01.499Z,2.3
2018-05-31T01:13:01.467Z,2.4
2018-05-31T01:16:01.606Z,2.3
2018-05-31T01:19:01.544Z,2.3
2018-05-31T01:22:01.572Z,2.3
2018-05-31T01:25:01.583Z,2.4
2018-05-31T01:28:01.621Z,2.4
2018-05-31T01:31:01.547Z,2.4
2018-05-31T01:34:01.686Z,2.6
2018-05-31T01:37:01.425Z,2.3
2018-05-31T01:40:01.615Z,2.3
2018-05-31T01:43:01.712Z,2.2
2018-05-31T01:46:01.668Z,2.2
2018-05-31T01:49:01.221Z,2.3
2018-05-31T01:52:01.147Z,2.2
2018-05-31T01:55:01.170Z,2.2
2018-05-31T01:58:01.177Z,2.4
2018-05-31T02:01:01.751Z,2.2
2018-05-31T02:04:01.541Z,2.2
2018-05-31T02:07:01.364Z,2.3
2018-05-31T02:10:01.324Z,2.3
2018-05-31T02:13:01.267Z,2.4
2018-05-31T02:16:01.345Z,2.2
2018-05-31T02:19:01.347Z,2.5
2018-05-31T02:22:01.112Z,2.6
2018-05-31T02:25:01.342Z,2.6
2018-05-31T02:28:01.268Z,2.8
2018-05-31T02:31:01.483Z,2.3
2018-05-31T02:34:01.378Z,2.4
2018-05-31T02:37:01.131Z,2.1
2018-05-31T02:40:01.361Z,2.1
2018-05-31T02:43:01.416Z,2.1
2018-05-31T02:46:01.219Z,3.1
2018-05-31T02:49:01.494Z,2.1
2018-05-31T02:52:01.383Z,2.2
2018-05-31T02:55:01.202Z,2
2018-05-31T02:58:01.282Z,2.1
2018-05-31T03:01:01.234Z,2.1
2018-05-31T03:04:06.204Z,2.2
2018-05-31T03:07:01.521Z,2
2018-05-31T03:10:01.332Z,2.2
2018-05-31T03:13:02.312Z,2.1
2018-05-31T03:16:01.425Z,2.5
2018-05-31T03:19:01.490Z,2.2
2018-05-31T03:22:06.038Z,2.2
2018-05-31T03:25:01.548Z,2.2
2018-05-31T03:28:01.474Z,2.4
2018-05-31T03:31:05.104Z,2.3
2018-05-31T03:34:01.538Z,2.2
2018-05-31T03:37:01.459Z,2.4
2018-05-31T03:40:01.555Z,2.1
2018-05-31T03:43:01.506Z,2.1
2018-05-31T03:46:01.494Z,2.3
2018-05-31T03:49:01.475Z,2.1
2018-05-31T03:52:01.541Z,2.2
2018-05-31T03:55:01.569Z,2.2
2018-05-31T03:58:01.473Z,2.5
2018-05-31T04:01:01.628Z,2.5
2018-05-31T04:04:01.560Z,2.2
2018-05-31T04:07:01.621Z,2.5
2018-05-31T04:10:01.585Z,2.3
2018-05-31T04:13:02.405Z,2.3
2018-05-31T04:16:01.232Z,2.3
2018-05-31T04:19:01.216Z,2.2
2018-05-31T04:22:01.262Z,2
2018-05-31T04:25:01.752Z,2.3
2018-05-31T04:28:01.214Z,2.3
2018-05-31T04:31:01.486Z,2.2
2018-05-31T04:34:01.295Z,2.1
2018-05-31T04:37:01.235Z,2.3
2018-05-31T04:40:01.374Z,2.1
2018-05-31T04:43:01.304Z,2.2
2018-05-31T04:46:01.230Z,2.2
2018-05-31T04:49:01.273Z,2.2
2018-05-31T04:52:01.079Z,2.2
2018-05-31T04:55:01.191Z,2.4
2018-05-31T04:58:01.347Z,2
2018-05-31T05:01:01.107Z,2.1
2018-05-31T05:04:01.307Z,2.3
2018-05-31T05:07:01.403Z,2.3
2018-05-31T05:10:01.108Z,2.3
2018-05-31T05:13:01.300Z,2.2
2018-05-31T05:16:01.119Z,2.7
2018-05-31T05:19:01.302Z,2.2
2018-05-31T05:22:01.232Z,2.3
2018-05-31T05:25:01.472Z,2.2
2018-05-31T05:28:01.264Z,2.1
2018-05-31T05:31:01.353Z,2.1
2018-05-31T05:34:01.302Z,2.2
2018-05-31T05:37:01.386Z,2.2
2018-05-31T05:40:01.373Z,2.3
2018-05-31T05:43:01.289Z,2.1
2018-05-31T05:46:01.369Z,2.2
2018-05-31T05:49:01.826Z,2.2
2018-05-31T05:52:01.411Z,2.1
2018-05-31T05:55:01.416Z,2.3
2018-05-31T05:58:01.554Z,2.2
2018-05-31T06:01:01.379Z,2.2
2018-05-31T06:04:01.403Z,2.3
2018-05-31T06:07:01.460Z,2.2
2018-05-31T06:10:02.152Z,2.2
2018-05-31T06:13:01.607Z,2.1
2018-05-31T06:16:01.443Z,2.2
2018-05-31T06:19:01.487Z,2.2
2018-05-31T06:22:01.467Z,2.2
2018-05-31T06:25:01.709Z,2.1
2018-05-31T06:28:01.525Z,2
2018-05-31T06:31:01.485Z,2.3
2018-05-31T06:34:01.524Z,2.1
2018-05-31T06:37:01.496Z,2.1
2018-05-31T06:40:01.530Z,1.9
2018-05-31T06:43:01.569Z,2.1
2018-05-31T06:46:01.558Z,2.3
2018-05-31T06:49:01.099Z,2.1
2018-05-31T06:52:01.099Z,2.2
2018-05-31T06:55:01.136Z,2
2018-05-31T06:58:01.104Z,2.3
2018-05-31T07:01:01.232Z,2.1
2018-05-31T07:04:01.297Z,2.1
2018-05-31T07:07:01.251Z,2
2018-05-31T07:10:01.317Z,2
2018-05-31T07:13:01.159Z,2.1
2018-05-31T07:16:01.208Z,1.9
2018-05-31T07:19:01.270Z,2
2018-05-31T07:22:01.103Z,2
2018-05-31T07:25:01.145Z,2
2018-05-31T07:28:01.040Z,2.1
2018-05-31T07:31:01.080Z,2
2018-05-31T07:34:01.103Z,2.1
2018-05-31T07:37:01.349Z,2
2018-05-31T07:40:01.270Z,2
2018-05-31T07:43:01.224Z,2
2018-05-31T07:46:00.989Z,2.2
2018-05-31T07:49:01.252Z,2.1
2018-05-31T07:52:01.200Z,2
2018-05-31T07:55:01.051Z,2
2018-05-31T07:58:02.010Z,1.8
2018-05-31T08:01:01.140Z,1.9
2018-05-31T08:04:01.245Z,2
2018-05-31T08:07:01.231Z,1.8
2018-05-31T08:10:01.283Z,1.9
2018-05-31T08:13:01.162Z,2
2018-05-31T08:16:01.161Z,1.9
2018-05-31T08:19:01.174Z,2
2018-05-31T08:22:01.387Z,2
2018-05-31T08:25:01.381Z,3.3
2018-05-31T08:28:01.389Z,1.9
2018-05-31T08:31:01.281Z,2
2018-05-31T08:34:01.461Z,2
2018-05-31T08:37:01.288Z,1.9
2018-05-31T08:40:01.333Z,1.8
2018-05-31T08:43:01.353Z,1.9
2018-05-31T08:46:01.387Z,1.8
2018-05-31T08:49:01.407Z,1.8
2018-05-31T08:52:01.418Z,2
2018-05-31T08:55:01.386Z,2
2018-05-31T08:58:01.413Z,2
2018-05-31T09:01:01.016Z,2.1
2018-05-31T09:04:01.433Z,2
2018-05-31T09:07:01.571Z,2
2018-05-31T09:10:01.575Z,2.1
2018-05-31T09:13:01.128Z,4.6
2018-05-31T09:16:01.474Z,2.7
2018-05-31T09:19:01.156Z,2.1
2018-05-31T09:22:02.089Z,2.2
2018-05-31T09:25:01.108Z,2.8
2018-05-31T09:28:01.079Z,2.2
2018-05-31T09:31:01.212Z,2.9
2018-05-31T09:34:01.173Z,3.1
2018-05-31T09:37:00.916Z,3.5
2018-05-31T09:40:00.947Z,3.1
2018-05-31T09:43:01.077Z,2.5
2018-05-31T09:46:01.052Z,2.2
2018-05-31T09:49:01.105Z,2.5
2018-05-31T09:52:01.201Z,3.8
2018-05-31T09:55:01.027Z,3
2018-05-31T09:58:01.144Z,2.4
2018-05-31T10:01:01.155Z,2.2
2018-05-31T10:04:01.048Z,2.3
2018-05-31T10:07:01.057Z,4.2
2018-05-31T10:10:00.964Z,6.2
2018-05-31T10:13:01.012Z,2.9
2018-05-31T10:16:01.078Z,4.7
2018-05-31T10:19:01.067Z,6.8
2018-05-31T10:22:01.008Z,6.4
2018-05-31T10:25:01.151Z,4.2
2018-05-31T10:28:01.137Z,2.9
2018-05-31T10:31:01.510Z,3
2018-05-31T10:34:01.385Z,2.3
2018-05-31T10:37:02.253Z,3.4
2018-05-31T10:40:01.562Z,3.3
2018-05-31T10:43:01.615Z,5.2
2018-05-31T10:46:01.540Z,11.6
2018-05-31T10:49:01.248Z,8.8
2018-05-31T10:52:01.375Z,8.2
2018-05-31T10:55:01.684Z,6
2018-05-31T10:58:01.406Z,4.8
2018-05-31T11:01:01.181Z,3.8
2018-05-31T11:04:01.403Z,4.1
2018-05-31T11:07:01.650Z,4.4
2018-05-31T11:10:01.445Z,5.2
2018-05-31T11:13:01.229Z,3.4
2018-05-31T11:16:01.250Z,4.1
2018-05-31T11:19:01.249Z,4.1
2018-05-31T11:22:01.297Z,3.7
2018-05-31T11:25:01.269Z,3.5
2018-05-31T11:28:01.236Z,4.4
2018-05-31T11:31:01.265Z,3.3
2018-05-31T11:34:01.255Z,4.3
2018-05-31T11:37:11.268Z,3.8
2018-05-31T11:40:01.389Z,5
2018-05-31T11:43:01.312Z,6.2
2018-05-31T11:46:01.351Z,4.7
2018-05-31T11:49:01.453Z,4.3
2018-05-31T11:52:00.890Z,4.8
2018-05-31T11:55:01.060Z,3.4
2018-05-31T11:58:01.027Z,4.7
2018-05-31T12:01:01.496Z,3.9
2018-05-31T12:04:00.920Z,3
2018-05-31T12:07:01.455Z,3.3
2018-05-31T12:10:01.081Z,4.6
2018-05-31T12:13:01.048Z,4.8
2018-05-31T12:16:00.885Z,6.1
2018-05-31T12:19:01.018Z,5.6
2018-05-31T12:22:01.550Z,5.5
2018-05-31T12:25:00.970Z,3
2018-05-31T12:28:01.234Z,3.3
2018-05-31T12:31:01.068Z,3.2
2018-05-31T12:34:01.178Z,3.5
2018-05-31T12:37:01.073Z,3.2
2018-05-31T12:40:01.109Z,3
2018-05-31T12:43:01.099Z,3.3
2018-05-31T12:46:01.033Z,3.3
2018-05-31T12:49:01.105Z,3.2
2018-05-31T12:52:00.960Z,3.6
2018-05-31T12:55:01.020Z,2.6
2018-05-31T12:58:00.866Z,5
2018-05-31T13:01:01.128Z,3.1
2018-05-31T13:04:01.131Z,2.5
2018-05-31T13:07:01.064Z,5.1
2018-05-31T13:10:01.048Z,4.2
2018-05-31T13:13:01.129Z,4.3
2018-05-31T13:16:01.110Z,4.2
2018-05-31T13:19:00.939Z,2.7
2018-05-31T13:22:01.108Z,3
2018-05-31T13:25:00.985Z,3.5
2018-05-31T13:28:01.022Z,3.6
2018-05-31T13:31:01.066Z,5
2018-05-31T13:34:01.052Z,3.5
2018-05-31T13:37:01.059Z,3.4
2018-05-31T13:40:01.167Z,4.8
2018-05-31T13:43:01.261Z,3.5
2018-05-31T13:46:01.337Z,3.2
2018-05-31T13:49:01.166Z,5.6
2018-05-31T13:52:01.409Z,3.4
2018-05-31T13:55:01.180Z,2.7
2018-05-31T13:58:01.201Z,3.4
2018-05-31T14:01:01.213Z,3.5
2018-05-31T14:04:01.212Z,4.7
2018-05-31T14:07:01.231Z,3
2018-05-31T14:10:01.299Z,6
2018-05-31T14:13:01.344Z,2.5
2018-05-31T14:16:01.297Z,3.5
2018-05-31T14:19:01.065Z,2.6
2018-05-31T14:22:01.104Z,2.7
2018-05-31T14:25:01.370Z,2.2
2018-05-31T14:28:01.346Z,3.1
2018-05-31T14:31:01.277Z,2.4
2018-05-31T14:34:01.424Z,3.7
2018-05-31T14:37:00.849Z,2.7
2018-05-31T14:40:01.492Z,2.2
2018-05-31T14:43:00.920Z,2.6
2018-05-31T14:46:01.258Z,3.6
2018-05-31T14:49:01.257Z,2.7
2018-05-31T14:52:01.277Z,3.7
2018-05-31T14:55:01.538Z,2.7
2018-05-31T14:58:01.541Z,2.2
2018-05-31T15:01:01.507Z,2.2
2018-05-31T15:04:01.350Z,2.1
2018-05-31T15:07:01.050Z,2.4
2018-05-31T15:10:00.906Z,3.6
2018-05-31T15:13:00.879Z,4.2
2018-05-31T15:16:01.123Z,3.2
2018-05-31T15:19:01.029Z,3.2
2018-05-31T15:22:01.078Z,5
2018-05-31T15:25:00.984Z,2.3
2018-05-31T15:28:01.190Z,5.4
2018-05-31T15:31:01.026Z,5.8
2018-05-31T15:34:00.868Z,3.3
2018-05-31T15:37:01.100Z,6.2
2018-05-31T15:40:01.165Z,5.3
2018-05-31T15:43:02.768Z,7.6
2018-05-31T15:46:01.348Z,4.4
2018-05-31T15:49:01.848Z,4.8
2018-05-31T15:52:01.971Z,4.3
2018-05-31T15:55:02.013Z,4.9
2018-05-31T15:58:01.946Z,5.9
2018-05-31T16:01:01.357Z,8.9
2018-05-31T16:04:02.034Z,14.3
2018-05-31T16:07:01.528Z,9.9
2018-05-31T16:10:01.085Z,10.3
2018-05-31T16:13:01.976Z,10.6
2018-05-31T16:16:01.465Z,10.2
2018-05-31T16:19:02.068Z,11
2018-05-31T16:22:02.083Z,8.6
2018-05-31T16:25:01.528Z,7.7
2018-05-31T16:28:02.160Z,8.5
2018-05-31T16:31:01.498Z,5.9
2018-05-31T16:34:02.006Z,4.8
2018-05-31T16:37:03.102Z,6.7
2018-05-31T16:40:01.595Z,8.8
2018-05-31T16:43:03.131Z,4.5
2018-05-31T16:46:01.453Z,8.4
2018-05-31T16:49:01.663Z,7.6
2018-05-31T16:52:01.595Z,10.1
2018-05-31T16:55:01.763Z,7.6
2018-05-31T16:58:01.820Z,5.6
2018-05-31T17:01:02.164Z,10.4
2018-05-31T17:04:01.450Z,8.4
2018-05-31T17:07:01.820Z,4.9
2018-05-31T17:10:01.685Z,7
2018-05-31T17:13:00.910Z,4.4
2018-05-31T17:16:00.887Z,5.9
2018-05-31T17:19:02.369Z,5.4
2018-05-31T17:22:00.880Z,6
2018-05-31T17:25:00.875Z,3.4
2018-05-31T17:28:02.340Z,6
2018-05-31T17:31:00.789Z,3
2018-05-31T17:34:01.013Z,5.1
2018-05-31T17:37:01.549Z,4.8
2018-05-31T17:40:00.872Z,4.7
2018-05-31T17:43:01.746Z,3.3
2018-05-31T17:46:01.742Z,3
2018-05-31T17:49:01.040Z,2.5
2018-05-31T17:52:01.019Z,2.7
2018-05-31T17:55:01.037Z,3.9
2018-05-31T17:58:01.128Z,3
2018-05-31T18:01:01.594Z,2.9
2018-05-31T18:04:00.837Z,3.2
2018-05-31T18:07:00.983Z,4.4
2018-05-31T18:10:00.900Z,4.7
2018-05-31T18:13:00.948Z,4.1
2018-05-31T18:16:00.900Z,3.3
2018-05-31T18:19:00.986Z,3.6
2018-05-31T18:22:01.024Z,3.9
2018-05-31T18:25:01.087Z,3
2018-05-31T18:28:01.133Z,4.3
2018-05-31T18:31:01.130Z,2.9
2018-05-31T18:34:01.076Z,3.3
2018-05-31T18:37:01.068Z,5.2
2018-05-31T18:40:02.056Z,7.1
2018-05-31T18:43:03.898Z,3.5
2018-05-31T18:46:03.845Z,4.3
2018-05-31T18:49:01.256Z,6.5
2018-05-31T18:52:02.222Z,3.1
2018-05-31T18:55:01.791Z,3.4
2018-05-31T18:58:03.924Z,3.8
2018-05-31T19:01:01.250Z,4.6
2018-05-31T19:04:01.246Z,3
2018-05-31T19:07:02.534Z,5
2018-05-31T19:10:01.252Z,3.2
2018-05-31T19:13:01.353Z,3.8
2018-05-31T19:16:01.413Z,4.5
2018-05-31T19:19:01.450Z,3.8
2018-05-31T19:22:01.507Z,3.7
2018-05-31T19:25:01.411Z,3.5
2018-05-31T19:28:01.374Z,5.9
2018-05-31T19:31:01.887Z,4.3
2018-05-31T19:34:01.550Z,3
2018-05-31T19:37:01.427Z,4.8
2018-05-31T19:40:01.972Z,3.6
2018-05-31T19:43:01.520Z,2.9
2018-05-31T19:46:01.503Z,3.8
2018-05-31T19:49:01.507Z,2.9
2018-05-31T19:52:32.662Z,6.5
2018-05-31T19:55:01.386Z,4.5
2018-05-31T19:58:02.177Z,3.2
2018-05-31T20:01:02.055Z,4.4
2018-05-31T20:04:00.854Z,3.9
2018-05-31T20:07:00.914Z,3.4
2018-05-31T20:10:01.901Z,3.7
2018-05-31T20:13:00.938Z,2.7
2018-05-31T20:16:01.589Z,4.6
2018-05-31T20:19:04.882Z,3.1
2018-05-31T20:22:00.940Z,4.2
2018-05-31T20:25:01.776Z,4.2
2018-05-31T20:28:02.001Z,2.8
2018-05-31T20:31:00.880Z,4.5
2018-05-31T20:34:00.857Z,4.3
2018-05-31T20:37:02.565Z,3.5
2018-05-31T20:40:01.026Z,2.8
2018-05-31T20:43:01.020Z,4.4
2018-05-31T20:46:00.966Z,2.9
2018-05-31T20:49:00.931Z,3.1
2018-05-31T20:52:00.838Z,3.7
2018-05-31T20:55:00.918Z,3.4
2018-05-31T20:58:00.881Z,2.5
2018-05-31T21:01:01.156Z,3.1
2018-05-31T21:04:00.983Z,2.4
2018-05-31T21:07:00.899Z,3.5
2018-05-31T21:10:00.999Z,2.4
2018-05-31T21:13:00.821Z,2.5
2018-05-31T21:16:01.114Z,2.6
2018-05-31T21:19:01.071Z,3.4
2018-05-31T21:22:00.934Z,2.5
2018-05-31T21:25:00.804Z,2.4
2018-05-31T21:28:00.844Z,2.8
2018-05-31T21:31:32.795Z,2.6
2018-05-31T21:34:00.992Z,4.2
2018-05-31T21:37:00.933Z,2.9
2018-05-31T21:40:00.854Z,2.3
2018-05-31T21:43:00.913Z,3.5
2018-05-31T21:46:00.884Z,3.1
2018-05-31T21:49:01.046Z,3.8
2018-05-31T21:52:01.186Z,2.5
2018-05-31T21:55:01.149Z,2.5
2018-05-31T21:58:02.768Z,2.8
2018-05-31T22:01:01.317Z,2.4
2018-05-31T22:04:01.139Z,2.1
2018-05-31T22:07:00.972Z,3.2
2018-05-31T22:10:01.043Z,2.6
2018-05-31T22:13:01.053Z,2.2
2018-05-31T22:16:01.271Z,2.4
2018-05-31T22:19:01.475Z,2.3
2018-05-31T22:22:01.101Z,4.1
2018-05-31T22:25:01.113Z,2.3
2018-05-31T22:28:01.323Z,2.2
2018-05-31T22:31:00.792Z,2.1
2018-05-31T22:34:00.940Z,2.6
2018-05-31T22:37:00.968Z,3.3
2018-05-31T22:40:00.973Z,2.9
2018-05-31T22:43:00.741Z,2
2018-05-31T22:46:01.589Z,2.8
2018-05-31T22:49:01.087Z,3.1
2018-05-31T22:52:00.876Z,2.2
2018-05-31T22:55:00.996Z,2.5
2018-05-31T22:58:00.869Z,2.8
2018-05-31T23:01:00.994Z,2.1
2018-05-31T23:04:00.831Z,2.7
2018-05-31T23:07:01.037Z,2.3
2018-05-31T23:10:00.966Z,2.4
2018-05-31T23:13:00.961Z,2.2
2018-05-31T23:16:00.936Z,2.1
2018-05-31T23:19:01.207Z,2
2018-05-31T23:22:00.911Z,2.1
2018-05-31T23:25:00.932Z,2
2018-05-31T23:28:00.892Z,2
2018-05-31T23:31:00.862Z,1.9
2018-05-31T23:34:01.016Z,2
2018-05-31T23:37:00.832Z,2.3
2018-05-31T23:40:00.930Z,2.1
2018-05-31T23:43:01.196Z,1.8
2018-05-31T23:46:00.899Z,2.2
2018-05-31T23:49:00.837Z,1.7
2018-05-31T23:52:00.921Z,1.9
2018-05-31T23:55:01.039Z,1.8
2018-05-31T23:58:00.802Z,1.7
